Time;durP1;ratioP1;P1;durP2;ratioP2;P2;SDS_P1;SDS_P2;PMS_P1;PMS_P2;Temp;Humidity;BMP_temperature;BMP_pressure;BME280_temperature;BME280_humidity;BME280_pressure;Samples;Min_cycle;Max_cycle;Signal;HPM_P1;HPM_P2
2022/07/25 00:01:34;;;;;;;2.53;1.90;;;;;;;;;;4975688;28;20077;-71
2022/07/25 00:04:00;;;;;;;3.35;1.90;;;;;;;;;;4975486;28;20097;-72
2022/07/25 00:06:26;;;;;;;2.47;1.92;;;;;;;;;;4975657;28;20031;-74
2022/07/25 00:08:52;;;;;;;4.68;1.95;;;;;;;;;;4974971;28;20546;-72
2022/07/25 00:11:18;;;;;;;3.13;1.95;;;;;;;;;;4975586;28;20031;-72
2022/07/25 00:13:44;;;;;;;5.97;1.75;;;;;;;;;;4975550;28;20078;-72
2022/07/25 00:16:10;;;;;;;2.50;2.10;;;;;;;;;;4976034;28;20038;-73
2022/07/25 00:18:36;;;;;;;3.72;1.90;;;;;;;;;;4975411;28;20030;-74
2022/07/25 00:21:03;;;;;;;3.53;1.98;;;;;;;;;;4975665;28;20027;-72
2022/07/25 00:23:29;;;;;;;3.92;1.92;;;;;;;;;;4958039;28;20062;-72
2022/07/25 00:25:55;;;;;;;5.35;2.25;;;;;;;;;;4975309;28;20109;-73
2022/07/25 00:28:21;;;;;;;2.92;1.88;;;;;;;;;;4975248;28;20027;-74
2022/07/25 00:30:47;;;;;;;3.67;2.10;;;;;;;;;;4975232;28;20030;-73
2022/07/25 00:33:13;;;;;;;4.68;1.95;;;;;;;;;;4975212;28;20485;-74
2022/07/25 00:35:39;;;;;;;6.30;2.15;;;;;;;;;;4975157;28;20031;-75
2022/07/25 00:38:05;;;;;;;2.35;1.98;;;;;;;;;;4975047;28;20033;-73
2022/07/25 00:40:31;;;;;;;3.75;2.00;;;;;;;;;;4975028;28;20429;-72
2022/07/25 00:42:57;;;;;;;5.25;2.20;;;;;;;;;;4974993;28;20054;-72
2022/07/25 00:45:23;;;;;;;3.58;1.90;;;;;;;;;;4974976;28;20027;-72
2022/07/25 00:47:49;;;;;;;3.92;2.10;;;;;;;;;;4974871;28;20500;-74
2022/07/25 00:50:15;;;;;;;3.58;2.05;;;;;;;;;;4974869;28;20053;-73
2022/07/25 00:52:41;;;;;;;6.50;2.42;;;;;;;;;;4974822;28;20548;-74
2022/07/25 00:55:07;;;;;;;3.42;1.70;;;;;;;;;;4975338;28;20026;-74
2022/07/25 00:57:33;;;;;;;4.20;1.75;;;;;;;;;;4975232;28;20477;-73
2022/07/25 00:59:59;;;;;;;2.78;2.17;;;;;;;;;;4974644;28;20037;-72
2022/07/25 01:02:25;;;;;;;6.32;2.40;;;;;;;;;;4974689;28;20023;-73
2022/07/25 01:04:53;;;;;;;4.10;2.05;;;;;;;;;;4974919;28;20418;-73
2022/07/25 01:07:19;;;;;;;3.80;2.05;;;;;;;;;;4974599;28;20054;-72
2022/07/25 01:09:45;;;;;;;4.68;1.90;;;;;;;;;;4974601;28;20050;-74
2022/07/25 01:12:11;;;;;;;4.32;2.10;;;;;;;;;;4974600;28;20497;-73
2022/07/25 01:14:37;;;;;;;5.10;2.17;;;;;;;;;;4974505;28;20037;-72
2022/07/25 01:17:04;;;;;;;5.40;2.22;;;;;;;;;;4974519;28;20031;-71
2022/07/25 01:19:30;;;;;;;4.53;2.22;;;;;;;;;;4957120;28;20468;-73
2022/07/25 01:21:56;;;;;;;4.88;2.10;;;;;;;;;;4974430;28;20367;-72
2022/07/25 01:24:22;;;;;;;3.17;1.92;;;;;;;;;;4974377;28;20038;-73
2022/07/25 01:26:48;;;;;;;3.33;1.92;;;;;;;;;;4974424;28;20026;-75
2022/07/25 01:29:14;;;;;;;3.88;2.10;;;;;;;;;;4974360;28;20027;-74
2022/07/25 01:31:40;;;;;;;5.38;2.20;;;;;;;;;;4974381;28;20023;-74
2022/07/25 01:34:06;;;;;;;4.20;2.40;;;;;;;;;;4974335;28;20388;-73
2022/07/25 01:36:32;;;;;;;4.30;2.25;;;;;;;;;;4974259;28;20023;-74
2022/07/25 01:38:58;;;;;;;4.20;2.20;;;;;;;;;;4974528;28;20086;-71
2022/07/25 01:41:24;;;;;;;5.65;2.10;;;;;;;;;;4974565;28;20498;-71
2022/07/25 01:43:50;;;;;;;3.08;2.30;;;;;;;;;;4974205;28;20031;-71
2022/07/25 01:46:16;;;;;;;4.13;2.22;;;;;;;;;;4974218;28;20030;-73
2022/07/25 01:48:42;;;;;;;3.35;2.28;;;;;;;;;;4974139;28;20039;-73
2022/07/25 01:51:11;;;;;;;3.88;2.03;;;;;;;;;;4974171;28;20030;-71
2022/07/25 01:53:37;;;;;;;4.65;2.03;;;;;;;;;;4974161;28;20058;-74
2022/07/25 01:56:04;;;;;;;7.20;2.47;;;;;;;;;;4974177;28;20052;-72
2022/07/25 01:58:31;;;;;;;4.35;2.35;;;;;;;;;;4974846;28;20037;-71
2022/07/25 02:00:57;;;;;;;7.07;2.22;;;;;;;;;;4973993;28;20015;-73
2022/07/25 02:03:29;;;;;;;4.20;1.90;;;;;;;;;;4974024;28;20509;-73
2022/07/25 02:05:55;;;;;;;5.20;2.10;;;;;;;;;;4974107;28;20023;-72
2022/07/25 02:08:23;;;;;;;2.85;2.00;;;;;;;;;;4973950;28;20051;-72
2022/07/25 02:10:49;;;;;;;6.15;2.35;;;;;;;;;;4974025;28;20030;-71
2022/07/25 02:13:15;;;;;;;3.72;2.05;;;;;;;;;;4974255;28;20027;-72
2022/07/25 02:15:41;;;;;;;4.18;1.85;;;;;;;;;;4974001;28;20029;-72
2022/07/25 02:18:07;;;;;;;3.08;2.10;;;;;;;;;;4974191;28;20074;-72
2022/07/25 02:20:33;;;;;;;2.30;1.80;;;;;;;;;;4973921;28;20027;-71
2022/07/25 02:22:59;;;;;;;6.65;2.10;;;;;;;;;;4974200;28;20473;-72
2022/07/25 02:25:25;;;;;;;2.30;1.80;;;;;;;;;;4973923;28;20038;-73
2022/07/25 02:27:51;;;;;;;3.53;1.90;;;;;;;;;;4973899;28;20027;-72
2022/07/25 02:30:17;;;;;;;3.83;1.73;;;;;;;;;;4974115;28;20114;-72
2022/07/25 02:32:44;;;;;;;3.90;2.05;;;;;;;;;;4976462;28;20038;-71
2022/07/25 02:35:10;;;;;;;1.88;1.77;;;;;;;;;;4977346;28;20547;-73
2022/07/25 02:37:36;;;;;;;2.83;1.70;;;;;;;;;;4977229;28;20027;-71
2022/07/25 02:40:02;;;;;;;3.38;1.88;;;;;;;;;;4977266;28;20106;-72
2022/07/25 02:42:28;;;;;;;5.97;2.20;;;;;;;;;;4977244;28;20030;-74
2022/07/25 02:44:54;;;;;;;3.90;1.83;;;;;;;;;;4977736;28;20023;-72
2022/07/25 02:47:20;;;;;;;5.93;1.98;;;;;;;;;;4977399;28;20027;-74
2022/07/25 02:49:46;;;;;;;2.67;2.03;;;;;;;;;;4959737;28;20400;-73
2022/07/25 02:52:12;;;;;;;4.25;2.10;;;;;;;;;;4959684;28;20038;-72
2022/07/25 02:54:38;;;;;;;3.00;2.00;;;;;;;;;;4977298;28;20027;-72
2022/07/25 02:57:04;;;;;;;6.15;2.55;;;;;;;;;;4976906;28;20400;-72
2022/07/25 02:59:30;;;;;;;3.00;2.20;;;;;;;;;;4977351;28;20023;-74
2022/07/25 03:01:56;;;;;;;5.25;2.85;;;;;;;;;;4976854;28;20027;-73
2022/07/25 03:04:22;;;;;;;4.75;2.20;;;;;;;;;;4976615;28;20523;-73
2022/07/25 03:06:48;;;;;;;6.63;2.67;;;;;;;;;;4976677;28;20027;-75
2022/07/25 03:09:14;;;;;;;5.07;2.60;;;;;;;;;;4976816;28;20023;-73
2022/07/25 03:11:40;;;;;;;6.20;2.58;;;;;;;;;;4976503;28;20504;-72
2022/07/25 03:14:07;;;;;;;6.00;2.88;;;;;;;;;;4976480;28;20022;-72
2022/07/25 03:16:33;;;;;;;6.72;2.55;;;;;;;;;;4959063;28;20019;-72
2022/07/25 03:18:59;;;;;;;5.00;2.75;;;;;;;;;;4976565;28;20113;-72
2022/07/25 03:21:25;;;;;;;4.00;2.13;;;;;;;;;;4976328;28;20073;-72
2022/07/25 03:23:51;;;;;;;3.83;2.15;;;;;;;;;;4976719;28;20026;-72
2022/07/25 03:26:17;;;;;;;6.00;2.63;;;;;;;;;;4976450;28;20545;-73
2022/07/25 03:28:43;;;;;;;5.47;2.67;;;;;;;;;;4976371;28;20030;-73
2022/07/25 03:31:09;;;;;;;3.88;2.50;;;;;;;;;;4976356;28;20030;-73
2022/07/25 03:33:35;;;;;;;3.92;2.50;;;;;;;;;;4976265;28;20039;-72
2022/07/25 03:36:01;;;;;;;5.80;2.20;;;;;;;;;;4958897;28;20034;-73
2022/07/25 03:38:28;;;;;;;4.45;2.80;;;;;;;;;;4976715;28;20458;-74
2022/07/25 03:40:54;;;;;;;6.18;2.83;;;;;;;;;;4976445;28;20099;-72
2022/07/25 03:43:20;;;;;;;3.03;2.10;;;;;;;;;;4975365;28;20054;-75
2022/07/25 03:45:46;;;;;;;4.63;2.53;;;;;;;;;;4976047;28;20023;-73
2022/07/25 03:48:12;;;;;;;5.55;2.63;;;;;;;;;;4976008;28;20117;-74
2022/07/25 03:50:38;;;;;;;4.57;2.35;;;;;;;;;;4976504;28;20027;-72
2022/07/25 03:53:04;;;;;;;5.22;2.33;;;;;;;;;;4976169;28;20027;-72
2022/07/25 03:55:30;;;;;;;5.57;2.33;;;;;;;;;;4975890;28;20023;-73
2022/07/25 03:57:56;;;;;;;5.00;2.05;;;;;;;;;;4976514;28;20109;-74
2022/07/25 04:00:22;;;;;;;3.35;2.20;;;;;;;;;;4975741;28;20086;-75
2022/07/25 04:02:48;;;;;;;4.50;2.58;;;;;;;;;;4975815;28;20067;-73
2022/07/25 04:05:14;;;;;;;5.55;2.25;;;;;;;;;;4976036;28;20087;-72
2022/07/25 04:07:40;;;;;;;6.30;2.55;;;;;;;;;;4975667;28;20054;-74
2022/07/25 04:10:07;;;;;;;6.47;3.13;;;;;;;;;;4975608;28;20032;-72
2022/07/25 04:12:33;;;;;;;5.43;2.80;;;;;;;;;;4975835;28;20078;-73
2022/07/25 04:14:59;;;;;;;4.63;2.67;;;;;;;;;;4975844;28;20103;-72
2022/07/25 04:17:25;;;;;;;6.35;2.58;;;;;;;;;;4975715;28;20035;-72
2022/07/25 04:19:51;;;;;;;5.40;2.80;;;;;;;;;;4975734;28;20026;-72
2022/07/25 04:22:17;;;;;;;4.38;2.38;;;;;;;;;;4975382;28;20385;-73
2022/07/25 04:24:43;;;;;;;7.47;2.47;;;;;;;;;;4975382;28;20397;-72
2022/07/25 04:27:09;;;;;;;6.53;2.70;;;;;;;;;;4975320;28;20030;-72
2022/07/25 04:29:35;;;;;;;5.10;2.45;;;;;;;;;;4975550;28;20031;-74
2022/07/25 04:32:01;;;;;;;5.93;2.60;;;;;;;;;;4975248;28;20026;-74
2022/07/25 04:34:27;;;;;;;6.35;2.55;;;;;;;;;;4975454;28;20033;-72
2022/07/25 04:36:53;;;;;;;5.35;2.72;;;;;;;;;;4957731;28;20097;-72
2022/07/25 04:39:19;;;;;;;4.30;2.72;;;;;;;;;;4975086;28;20034;-73
2022/07/25 04:41:45;;;;;;;5.25;2.75;;;;;;;;;;4975045;28;20105;-72
2022/07/25 04:44:11;;;;;;;5.60;2.55;;;;;;;;;;4975287;28;20123;-72
2022/07/25 04:46:37;;;;;;;3.70;2.40;;;;;;;;;;4974992;28;20474;-73
2022/07/25 04:49:03;;;;;;;4.63;2.67;;;;;;;;;;4957617;28;20125;-74
2022/07/25 04:51:29;;;;;;;5.53;2.42;;;;;;;;;;4975199;28;20054;-73
2022/07/25 04:53:55;;;;;;;4.20;2.40;;;;;;;;;;4974854;28;20085;-74
2022/07/25 04:56:21;;;;;;;10.98;3.45;;;;;;;;;;4974856;28;20022;-73
2022/07/25 04:58:48;;;;;;;5.78;2.70;;;;;;;;;;4975759;28;20031;-72
2022/07/25 05:01:14;;;;;;;6.28;2.80;;;;;;;;;;4974645;28;20019;-72
2022/07/25 05:03:40;;;;;;;7.90;3.22;;;;;;;;;;4974473;28;20529;-71
2022/07/25 05:06:06;;;;;;;6.78;3.15;;;;;;;;;;4974917;28;20484;-73
2022/07/25 05:08:32;;;;;;;7.00;3.40;;;;;;;;;;4974624;28;20058;-73
2022/07/25 05:10:58;;;;;;;6.32;3.15;;;;;;;;;;4975133;28;20069;-73
2022/07/25 05:13:24;;;;;;;6.57;3.13;;;;;;;;;;4974558;28;20026;-72
2022/07/25 05:15:50;;;;;;;6.68;2.80;;;;;;;;;;4974558;28;20113;-74
2022/07/25 05:18:16;;;;;;;7.22;3.40;;;;;;;;;;4974452;28;20085;-73
2022/07/25 05:20:42;;;;;;;8.70;3.25;;;;;;;;;;4957144;28;20130;-72
2022/07/25 05:23:08;;;;;;;8.52;3.47;;;;;;;;;;4974734;28;20026;-74
2022/07/25 05:25:34;;;;;;;7.05;3.63;;;;;;;;;;4974440;28;20101;-73
2022/07/25 05:28:01;;;;;;;4.88;3.05;;;;;;;;;;4974684;28;20027;-72
2022/07/25 05:30:28;;;;;;;9.13;3.38;;;;;;;;;;4974397;28;20023;-72
2022/07/25 05:32:54;;;;;;;8.45;3.50;;;;;;;;;;4974358;28;20027;-73
2022/07/25 05:35:20;;;;;;;8.80;3.17;;;;;;;;;;4974344;28;20031;-71
2022/07/25 05:37:46;;;;;;;10.82;3.63;;;;;;;;;;4974752;28;20023;-72
2022/07/25 05:40:12;;;;;;;6.05;3.45;;;;;;;;;;4974800;28;20058;-72
2022/07/25 05:42:38;;;;;;;6.35;3.17;;;;;;;;;;4974290;28;20367;-72
2022/07/25 05:45:04;;;;;;;7.07;3.45;;;;;;;;;;4974261;28;20026;-72
2022/07/25 05:47:30;;;;;;;7.93;3.35;;;;;;;;;;4974788;28;20027;-72
2022/07/25 05:49:56;;;;;;;13.00;4.03;;;;;;;;;;4974508;28;20031;-72
2022/07/25 05:52:22;;;;;;;7.85;3.40;;;;;;;;;;4974480;28;20035;-72
2022/07/25 05:54:49;;;;;;;10.27;3.55;;;;;;;;;;4956793;28;20087;-73
2022/07/25 05:57:15;;;;;;;9.77;3.33;;;;;;;;;;4956718;28;20031;-72
2022/07/25 05:59:41;;;;;;;7.40;3.30;;;;;;;;;;4957227;28;20512;-73
2022/07/25 06:02:07;;;;;;;8.35;2.88;;;;;;;;;;4974084;28;20027;-73
2022/07/25 06:04:33;;;;;;;7.45;3.05;;;;;;;;;;4973680;28;20057;-71
2022/07/25 06:06:59;;;;;;;7.93;2.78;;;;;;;;;;4976279;28;20023;-73
2022/07/25 06:09:25;;;;;;;10.55;3.05;;;;;;;;;;4977878;28;20026;-72
2022/07/25 06:11:52;;;;;;;7.95;2.92;;;;;;;;;;4978095;28;20050;-74
2022/07/25 06:14:18;;;;;;;5.90;2.95;;;;;;;;;;4977723;28;20023;-72
2022/07/25 06:16:44;;;;;;;8.57;3.30;;;;;;;;;;4977775;28;20058;-73
2022/07/25 06:19:10;;;;;;;9.43;3.58;;;;;;;;;;4977720;28;20041;-73
2022/07/25 06:21:36;;;;;;;8.68;3.17;;;;;;;;;;4978209;28;20031;-74
2022/07/25 06:24:02;;;;;;;10.45;2.90;;;;;;;;;;4977832;28;20452;-72
2022/07/25 06:26:28;;;;;;;7.25;2.95;;;;;;;;;;4977535;28;20084;-72
2022/07/25 06:28:54;;;;;;;5.63;2.67;;;;;;;;;;4977718;28;20023;-72
2022/07/25 06:31:20;;;;;;;7.97;3.05;;;;;;;;;;4977514;28;20059;-73
2022/07/25 06:33:46;;;;;;;8.77;2.88;;;;;;;;;;4977414;28;20018;-72
2022/07/25 06:36:12;;;;;;;9.85;3.33;;;;;;;;;;4960033;28;20031;-73
2022/07/25 06:38:38;;;;;;;9.15;2.80;;;;;;;;;;4977277;28;20474;-72
2022/07/25 06:41:04;;;;;;;11.35;3.35;;;;;;;;;;4977330;28;20082;-73
2022/07/25 06:43:30;;;;;;;6.18;3.00;;;;;;;;;;4977256;28;20023;-71
2022/07/25 06:45:56;;;;;;;8.23;2.75;;;;;;;;;;4977449;28;20030;-73
2022/07/25 06:48:23;;;;;;;8.45;2.88;;;;;;;;;;4977461;28;20389;-72
2022/07/25 06:50:49;;;;;;;7.47;2.70;;;;;;;;;;4977087;28;20027;-73
2022/07/25 06:53:15;;;;;;;8.00;3.10;;;;;;;;;;4977343;28;20054;-73
2022/07/25 06:55:41;;;;;;;7.25;2.80;;;;;;;;;;4976950;28;20062;-72
2022/07/25 06:58:07;;;;;;;8.20;2.85;;;;;;;;;;4977231;28;20053;-72
2022/07/25 07:00:33;;;;;;;6.03;2.45;;;;;;;;;;4960034;28;20026;-73
2022/07/25 07:03:01;;;;;;;6.43;2.88;;;;;;;;;;4976753;28;20049;-73
2022/07/25 07:05:31;;;;;;;7.18;3.08;;;;;;;;;;4977126;28;20031;-74
2022/07/25 07:07:58;;;;;;;7.50;2.75;;;;;;;;;;4977085;28;20509;-74
2022/07/25 07:10:24;;;;;;;8.60;2.90;;;;;;;;;;4978071;28;20505;-76
2022/07/25 07:12:51;;;;;;;7.63;2.80;;;;;;;;;;4980006;28;20062;-76
2022/07/25 07:15:17;;;;;;;6.47;2.63;;;;;;;;;;4958668;28;20070;-76
2022/07/25 07:17:43;;;;;;;8.15;2.70;;;;;;;;;;4976427;28;20114;-72
2022/07/25 07:20:09;;;;;;;9.18;2.55;;;;;;;;;;4976608;28;20556;-74
2022/07/25 07:22:45;;;;;;;8.43;3.03;;;;;;;;;;4977664;28;20034;-70
2022/07/25 07:25:12;;;;;;;9.02;3.03;;;;;;;;;;4982610;28;20037;-74
2022/07/25 07:27:38;;;;;;;10.02;2.70;;;;;;;;;;4993256;28;20524;-72
2022/07/25 07:30:04;;;;;;;7.38;2.90;;;;;;;;;;4988664;28;20030;-76
2022/07/25 07:32:30;;;;;;;5.38;2.60;;;;;;;;;;5003619;28;20535;-74
2022/07/25 07:34:56;;;;;;;9.35;2.58;;;;;;;;;;5014554;28;20065;-75
2022/07/25 07:37:22;;;;;;;8.68;2.75;;;;;;;;;;4995480;28;20038;-78
2022/07/25 07:39:49;;;;;;;5.18;2.30;;;;;;;;;;4975869;28;20031;-72
2022/07/25 07:42:15;;;;;;;11.98;2.83;;;;;;;;;;4976489;28;20101;-74
2022/07/25 07:44:41;;;;;;;6.65;2.60;;;;;;;;;;4979341;28;20049;-74
2022/07/25 07:47:07;;;;;;;5.90;2.47;;;;;;;;;;4979436;28;20026;-74
2022/07/25 07:49:33;;;;;;;7.45;3.00;;;;;;;;;;4991932;28;20034;-75
2022/07/25 07:51:59;;;;;;;6.80;2.63;;;;;;;;;;4971658;28;20389;-75
2022/07/25 07:57:11;;;;;;;9.80;2.53;;;;;;;;;;4975809;28;20034;-74
2022/07/25 07:59:37;;;;;;;6.65;2.42;;;;;;;;;;4976367;28;20449;-73
2022/07/25 08:02:03;;;;;;;8.18;2.25;;;;;;;;;;4975504;28;20038;-73
2022/07/25 08:04:29;;;;;;;6.82;2.30;;;;;;;;;;4975581;28;20097;-78
2022/07/25 08:06:55;;;;;;;7.40;2.80;;;;;;;;;;4976000;28;20023;-79
2022/07/25 08:09:24;;;;;;;9.40;2.08;;;;;;;;;;4989675;28;20480;-76
2022/07/25 08:11:50;;;;;;;7.85;2.35;;;;;;;;;;4994223;28;20173;-77
2022/07/25 08:14:16;;;;;;;8.80;2.40;;;;;;;;;;4979131;28;20529;-75
2022/07/25 08:16:42;;;;;;;11.95;2.53;;;;;;;;;;4963770;28;20114;-74
2022/07/25 08:19:08;;;;;;;6.85;2.72;;;;;;;;;;5008733;28;20056;-67
2022/07/25 08:21:34;;;;;;;7.70;2.55;;;;;;;;;;5005840;28;20029;-74
2022/07/25 08:24:00;;;;;;;7.88;3.17;;;;;;;;;;4975336;28;20031;-73
2022/07/25 08:26:26;;;;;;;10.68;2.60;;;;;;;;;;4979200;28;20034;-74
2022/07/25 08:28:53;;;;;;;7.60;2.65;;;;;;;;;;4986585;28;20109;-73
2022/07/25 08:31:19;;;;;;;5.35;2.05;;;;;;;;;;4989107;28;20113;-74
2022/07/25 08:33:45;;;;;;;9.02;2.55;;;;;;;;;;4994590;28;20073;-74
2022/07/25 08:36:11;;;;;;;7.93;3.03;;;;;;;;;;4994368;28;20065;-67
2022/07/25 08:38:37;;;;;;;6.78;2.70;;;;;;;;;;4993494;28;20544;-71
2022/07/25 08:41:03;;;;;;;5.07;2.10;;;;;;;;;;4992495;28;20019;-74
2022/07/25 08:43:33;;;;;;;4.60;1.90;;;;;;;;;;4980836;28;20027;-70
2022/07/25 08:46:00;;;;;;;4.07;1.70;;;;;;;;;;4992854;28;20026;-67
2022/07/25 08:48:26;;;;;;;8.20;2.15;;;;;;;;;;4992423;28;20031;-72
2022/07/25 08:50:53;;;;;;;4.32;2.38;;;;;;;;;;4983255;28;20097;-72
2022/07/25 08:53:19;;;;;;;4.30;1.98;;;;;;;;;;4991307;28;20053;-75
2022/07/25 08:55:46;;;;;;;5.40;2.00;;;;;;;;;;4976592;28;20105;-73
2022/07/25 08:58:16;;;;;;;4.63;2.00;;;;;;;;;;4958280;28;20022;-72
2022/07/25 09:00:42;;;;;;;6.68;2.47;;;;;;;;;;4978234;28;20435;-72
2022/07/25 09:03:08;;;;;;;7.70;1.90;;;;;;;;;;4974503;28;20054;-72
2022/07/25 09:05:35;;;;;;;6.57;2.15;;;;;;;;;;4974957;28;20489;-72
2022/07/25 09:08:12;;;;;;;5.93;2.10;;;;;;;;;;4975127;28;20035;-72
2022/07/25 09:10:41;;;;;;;10.32;2.42;;;;;;;;;;4974866;28;20563;-69
2022/07/25 09:13:09;;;;;;;6.85;2.33;;;;;;;;;;4957217;28;20042;-74
2022/07/25 09:15:40;;;;;;;3.97;1.88;;;;;;;;;;4974850;28;20054;-73
2022/07/25 09:18:07;;;;;;;4.60;1.90;;;;;;;;;;4974597;28;20058;-70
2022/07/25 09:20:43;;;;;;;5.72;2.03;;;;;;;;;;4981310;28;20030;-71
2022/07/25 09:23:10;;;;;;;5.90;1.83;;;;;;;;;;4994652;28;20036;-71
2022/07/25 09:25:37;;;;;;;5.68;1.80;;;;;;;;;;4994596;28;20050;-74
2022/07/25 09:28:29;;;;;;;6.22;1.63;;;;;;;;;;4994274;28;20037;-74
2022/07/25 09:30:59;;;;;;;5.75;1.83;;;;;;;;;;4989113;28;20117;-73
2022/07/25 09:33:26;;;;;;;3.40;1.42;;;;;;;;;;4974125;28;20514;-73
2022/07/25 09:35:53;;;;;;;6.63;1.50;;;;;;;;;;4974349;28;20105;-69
2022/07/25 09:38:19;;;;;;;7.63;2.17;;;;;;;;;;4974746;28;20114;-74
2022/07/25 09:40:56;;;;;;;4.43;1.55;;;;;;;;;;4974683;28;20022;-75
2022/07/25 09:43:22;;;;;;;5.63;1.55;;;;;;;;;;4978138;28;20026;-69
2022/07/25 09:45:50;;;;;;;2.67;1.15;;;;;;;;;;4978899;28;20050;-76
2022/07/25 09:48:18;;;;;;;3.50;1.20;;;;;;;;;;4978379;28;20059;-76
2022/07/25 09:50:44;;;;;;;1.80;1.10;;;;;;;;;;4984935;28;20030;-78
2022/07/25 09:53:11;;;;;;;3.17;1.10;;;;;;;;;;4997640;28;20053;-74
2022/07/25 09:55:37;;;;;;;3.55;1.13;;;;;;;;;;4998204;28;20061;-74
2022/07/25 09:58:03;;;;;;;3.70;1.23;;;;;;;;;;4980408;28;20038;-76
2022/07/25 10:00:31;;;;;;;5.05;1.17;;;;;;;;;;4989329;28;20030;-76
2022/07/25 10:03:16;;;;;;;2.63;1.17;;;;;;;;;;4977826;28;20126;-76
2022/07/25 10:06:00;;;;;;;3.92;1.33;;;;;;;;;;4977789;28;20027;-75
2022/07/25 10:08:26;;;;;;;2.78;1.30;;;;;;;;;;4977818;28;20026;-82
2022/07/25 10:10:53;;;;;;;6.38;1.65;;;;;;;;;;4977795;28;20485;-80
2022/07/25 10:13:29;;;;;;;5.70;1.30;;;;;;;;;;4960655;28;20030;-85
2022/07/25 10:15:55;;;;;;;3.10;1.30;;;;;;;;;;4977817;28;20051;-84
2022/07/25 10:18:22;;;;;;;2.55;1.20;;;;;;;;;;4977705;28;20033;-80
2022/07/25 10:20:49;;;;;;;3.08;1.27;;;;;;;;;;4977665;28;20058;-87
2022/07/25 10:23:23;;;;;;;4.68;1.20;;;;;;;;;;4977040;28;20042;-76
2022/07/25 10:26:09;;;;;;;3.53;1.20;;;;;;;;;;4977426;28;20018;-70
2022/07/25 10:28:40;;;;;;;2.22;1.00;;;;;;;;;;4978505;28;20046;-72
2022/07/25 10:31:21;;;;;;;4.10;1.23;;;;;;;;;;4996212;28;20113;-72
2022/07/25 10:33:49;;;;;;;2.97;1.15;;;;;;;;;;4995999;28;20057;-71
2022/07/25 10:36:15;;;;;;;5.47;1.52;;;;;;;;;;4996444;28;20025;-73
2022/07/25 10:38:43;;;;;;;3.17;1.02;;;;;;;;;;4996098;28;20038;-72
2022/07/25 10:41:11;;;;;;;5.80;1.10;;;;;;;;;;4996163;28;20041;-71
2022/07/25 10:43:38;;;;;;;4.43;1.10;;;;;;;;;;4996071;28;20157;-71
2022/07/25 10:46:11;;;;;;;5.07;1.42;;;;;;;;;;4996318;28;20045;-71
2022/07/25 10:48:38;;;;;;;6.45;1.67;;;;;;;;;;4997219;28;20038;-70
2022/07/25 10:51:08;;;;;;;3.95;1.23;;;;;;;;;;4996596;28;20034;-72
2022/07/25 10:53:37;;;;;;;5.15;1.33;;;;;;;;;;4978279;28;20077;-71
2022/07/25 10:56:23;;;;;;;3.67;1.23;;;;;;;;;;4996477;28;20030;-71
2022/07/25 10:58:59;;;;;;;4.25;1.40;;;;;;;;;;4978779;28;20072;-72
2022/07/25 11:01:32;;;;;;;3.88;1.40;;;;;;;;;;4996380;28;20026;-71
2022/07/25 11:04:03;;;;;;;3.67;1.23;;;;;;;;;;4996262;28;20049;-71
2022/07/25 11:06:29;;;;;;;3.13;1.33;;;;;;;;;;4996821;28;20109;-72
2022/07/25 11:08:58;;;;;;;6.00;1.50;;;;;;;;;;4996244;28;20023;-71
2022/07/25 11:11:39;;;;;;;5.80;1.40;;;;;;;;;;4978702;28;20396;-71
2022/07/25 11:14:05;;;;;;;5.15;1.40;;;;;;;;;;4996189;28;20500;-71
2022/07/25 11:16:31;;;;;;;2.45;1.23;;;;;;;;;;4996125;28;20052;-71
2022/07/25 11:18:57;;;;;;;6.05;1.58;;;;;;;;;;4995963;28;20026;-71
2022/07/25 11:21:23;;;;;;;5.20;1.25;;;;;;;;;;4996039;28;20030;-72
2022/07/25 11:23:50;;;;;;;3.22;1.27;;;;;;;;;;4996246;28;20027;-72
2022/07/25 11:26:16;;;;;;;5.22;1.77;;;;;;;;;;4978518;28;20030;-71
2022/07/25 11:28:49;;;;;;;6.85;1.40;;;;;;;;;;4995913;28;20026;-72
2022/07/25 11:31:16;;;;;;;4.00;1.45;;;;;;;;;;4996677;28;20030;-72
2022/07/25 11:33:43;;;;;;;3.72;1.50;;;;;;;;;;4995825;28;20421;-72
2022/07/25 11:36:10;;;;;;;4.30;1.10;;;;;;;;;;4995765;28;20054;-71
2022/07/25 11:38:37;;;;;;;6.32;1.58;;;;;;;;;;4996171;28;20041;-71
2022/07/25 11:41:04;;;;;;;2.42;1.02;;;;;;;;;;4995695;28;20393;-72
2022/07/25 11:43:30;;;;;;;6.53;1.98;;;;;;;;;;4995624;28;20388;-71
2022/07/25 11:46:00;;;;;;;3.10;1.10;;;;;;;;;;4995634;28;20531;-70
2022/07/25 11:48:30;;;;;;;7.55;1.67;;;;;;;;;;4995829;28;20480;-71
2022/07/25 11:50:56;;;;;;;3.15;1.30;;;;;;;;;;4995481;28;20118;-72
2022/07/25 11:53:24;;;;;;;2.75;1.38;;;;;;;;;;4995423;28;20081;-71
2022/07/25 11:55:50;;;;;;;3.28;1.05;;;;;;;;;;4995390;28;20026;-72
2022/07/25 11:58:17;;;;;;;2.47;1.23;;;;;;;;;;4995824;28;20053;-72
2022/07/25 12:00:44;;;;;;;2.33;1.50;;;;;;;;;;4978227;28;20121;-70
2022/07/25 12:03:19;;;;;;;2.03;0.82;;;;;;;;;;4995068;28;20166;-72
2022/07/25 12:05:45;;;;;;;2.63;1.10;;;;;;;;;;4994482;28;20030;-71
2022/07/25 12:08:11;;;;;;;4.30;1.50;;;;;;;;;;4995399;28;20102;-72
2022/07/25 12:10:38;;;;;;;3.47;1.80;;;;;;;;;;4995380;28;20064;-71
2022/07/25 12:13:06;;;;;;;3.45;1.52;;;;;;;;;;4995091;28;20026;-72
2022/07/25 12:15:35;;;;;;;4.00;1.63;;;;;;;;;;4995290;28;20034;-70
2022/07/25 12:18:01;;;;;;;4.15;1.30;;;;;;;;;;4994901;28;20033;-72
2022/07/25 12:20:27;;;;;;;3.03;1.20;;;;;;;;;;4994905;28;20396;-71
2022/07/25 12:22:55;;;;;;;3.15;1.27;;;;;;;;;;4994812;28;20022;-72
2022/07/25 12:25:21;;;;;;;3.38;1.33;;;;;;;;;;4994795;28;20101;-71
2022/07/25 12:27:47;;;;;;;3.45;1.27;;;;;;;;;;4994690;28;20053;-71
2022/07/25 12:30:13;;;;;;;6.10;1.40;;;;;;;;;;4994694;28;20031;-72
2022/07/25 12:32:40;;;;;;;3.42;1.27;;;;;;;;;;4994621;28;20032;-73
2022/07/25 12:35:07;;;;;;;4.35;1.48;;;;;;;;;;4994613;28;20110;-71
2022/07/25 12:37:33;;;;;;;4.30;1.50;;;;;;;;;;4994783;28;20037;-71
2022/07/25 12:39:59;;;;;;;3.35;1.08;;;;;;;;;;4994551;28;20370;-71
2022/07/25 12:42:27;;;;;;;1.88;0.98;;;;;;;;;;4994550;28;20388;-71
2022/07/25 12:44:54;;;;;;;5.18;1.33;;;;;;;;;;4994440;28;20026;-72
2022/07/25 12:47:20;;;;;;;4.07;1.42;;;;;;;;;;4994442;28;20023;-72
2022/07/25 12:49:46;;;;;;;2.85;1.10;;;;;;;;;;4994397;28;20034;-71
2022/07/25 12:52:13;;;;;;;2.05;0.90;;;;;;;;;;4994325;28;20468;-72
2022/07/25 12:54:39;;;;;;;3.30;1.20;;;;;;;;;;4994346;28;20053;-71
2022/07/25 12:57:05;;;;;;;3.25;0.70;;;;;;;;;;4994211;28;20054;-72
2022/07/25 12:59:31;;;;;;;2.60;1.00;;;;;;;;;;4994723;28;20022;-72
2022/07/25 13:01:57;;;;;;;7.85;1.70;;;;;;;;;;4994159;28;20072;-72
2022/07/25 13:04:25;;;;;;;1.70;1.00;;;;;;;;;;4993965;28;20062;-72
2022/07/25 13:06:51;;;;;;;5.78;1.20;;;;;;;;;;4994075;28;20448;-72
2022/07/25 13:09:17;;;;;;;1.90;0.90;;;;;;;;;;4994312;28;20026;-72
2022/07/25 13:11:43;;;;;;;3.38;1.10;;;;;;;;;;4994222;28;20034;-70
2022/07/25 13:14:09;;;;;;;3.42;1.02;;;;;;;;;;4993923;28;20544;-71
2022/07/25 13:16:36;;;;;;;3.80;1.20;;;;;;;;;;4993825;28;20027;-72
2022/07/25 13:19:03;;;;;;;2.03;0.98;;;;;;;;;;4993927;28;20031;-71
2022/07/25 13:21:30;;;;;;;3.65;1.15;;;;;;;;;;4993893;28;20037;-71
2022/07/25 13:23:56;;;;;;;1.60;0.82;;;;;;;;;;4994150;28;20050;-72
2022/07/25 13:26:22;;;;;;;3.15;0.95;;;;;;;;;;4994417;28;20448;-71
2022/07/25 13:28:50;;;;;;;1.88;0.90;;;;;;;;;;4993848;28;20105;-71
2022/07/25 13:31:17;;;;;;;2.45;1.10;;;;;;;;;;4994072;28;20369;-72
2022/07/25 13:33:43;;;;;;;5.10;1.00;;;;;;;;;;4993993;28;20396;-71
2022/07/25 13:36:09;;;;;;;2.90;0.70;;;;;;;;;;4993782;28;20023;-71
2022/07/25 13:38:37;;;;;;;1.73;0.90;;;;;;;;;;4993638;28;20500;-73
2022/07/25 13:41:03;;;;;;;2.92;0.88;;;;;;;;;;4993746;28;20031;-71
2022/07/25 13:43:29;;;;;;;3.90;1.00;;;;;;;;;;4994012;28;20535;-73
2022/07/25 13:45:55;;;;;;;2.13;0.75;;;;;;;;;;4993721;28;20034;-72
2022/07/25 13:48:21;;;;;;;2.00;0.88;;;;;;;;;;4993939;28;20058;-70
2022/07/25 13:50:47;;;;;;;3.00;0.70;;;;;;;;;;4993674;28;20033;-72
2022/07/25 13:53:14;;;;;;;2.90;1.27;;;;;;;;;;4993934;28;20030;-71
2022/07/25 13:55:40;;;;;;;3.15;0.80;;;;;;;;;;4993643;28;20066;-72
2022/07/25 13:58:06;;;;;;;3.55;0.70;;;;;;;;;;4994022;28;20026;-71
2022/07/25 14:00:32;;;;;;;4.47;1.10;;;;;;;;;;4994060;28;20374;-72
2022/07/25 14:02:58;;;;;;;3.17;0.60;;;;;;;;;;4993364;28;20581;-72
2022/07/25 14:05:24;;;;;;;1.98;0.70;;;;;;;;;;4993561;28;20023;-71
2022/07/25 14:07:50;;;;;;;3.20;1.00;;;;;;;;;;4993704;28;20022;-70
2022/07/25 14:10:16;;;;;;;2.40;0.88;;;;;;;;;;4975991;28;20509;-73
2022/07/25 14:12:42;;;;;;;1.73;0.90;;;;;;;;;;4993454;28;20029;-72
2022/07/25 14:15:08;;;;;;;2.55;0.95;;;;;;;;;;4993632;28;20030;-72
2022/07/25 14:17:34;;;;;;;1.83;0.90;;;;;;;;;;4993364;28;20056;-71
2022/07/25 14:20:00;;;;;;;2.67;1.02;;;;;;;;;;4993390;28;20029;-71
2022/07/25 14:22:26;;;;;;;1.60;0.93;;;;;;;;;;4993651;28;20019;-71
2022/07/25 14:24:52;;;;;;;3.58;1.00;;;;;;;;;;4993594;28;20033;-71
2022/07/25 14:27:18;;;;;;;1.77;0.80;;;;;;;;;;4994172;28;20018;-73
2022/07/25 14:29:44;;;;;;;1.55;0.70;;;;;;;;;;4996989;28;20030;-71
2022/07/25 14:32:10;;;;;;;3.08;0.88;;;;;;;;;;4997509;28;20058;-71
2022/07/25 14:34:39;;;;;;;1.73;0.80;;;;;;;;;;4997151;28;20049;-70
2022/07/25 14:37:06;;;;;;;2.20;0.80;;;;;;;;;;4996822;28;20480;-72
2022/07/25 14:39:32;;;;;;;3.05;0.90;;;;;;;;;;4997116;28;20046;-72
2022/07/25 14:41:58;;;;;;;3.05;1.10;;;;;;;;;;4996778;28;20073;-71
2022/07/25 14:44:28;;;;;;;4.90;1.00;;;;;;;;;;4996730;28;20042;-71